createdAt,value
2019-02-19T00:01:57.861Z,100434.09
2019-02-19T00:04:26.400Z,100437.59
2019-02-19T00:06:54.818Z,100441.27
2019-02-19T00:09:23.435Z,100440.52
2019-02-19T00:11:51.859Z,100441.92
2019-02-19T00:14:20.370Z,100441.22
2019-02-19T00:16:49.266Z,100446.73
2019-02-19T00:19:17.689Z,100446.99
2019-02-19T00:21:46.111Z,100434.23
2019-02-19T00:24:14.568Z,100442.91
2019-02-19T00:26:42.990Z,100440.87
2019-02-19T00:29:11.410Z,100445.35
2019-02-19T00:31:40.205Z,100444.37
2019-02-19T00:34:08.628Z,100443.48
2019-02-19T00:36:37.046Z,100438.28
2019-02-19T00:39:06.559Z,100438.17
2019-02-19T00:41:34.985Z,100440.34
2019-02-19T00:44:03.703Z,100433.77
2019-02-19T00:46:32.173Z,100439.52
2019-02-19T00:49:00.598Z,100439.52
2019-02-19T00:51:29.018Z,100442.93
2019-02-19T00:53:57.643Z,100440.79
2019-02-19T00:56:26.068Z,100436.67
2019-02-19T00:58:54.496Z,100433.44
2019-02-19T01:01:22.946Z,100444.48
2019-02-19T01:03:51.438Z,100442.45
2019-02-19T01:06:20.026Z,100440.57
2019-02-19T01:08:48.488Z,100444.13
2019-02-19T01:11:17.050Z,100443.65
2019-02-19T01:13:45.652Z,100445.82
2019-02-19T01:16:14.555Z,100439.03
2019-02-19T01:18:43.066Z,100449.10
2019-02-19T01:21:11.491Z,100450.22
2019-02-19T01:23:40.050Z,100440.68
2019-02-19T01:26:08.503Z,100453.89
2019-02-19T01:28:37.694Z,100450.40
2019-02-19T01:31:06.234Z,100457.44
2019-02-19T01:33:34.655Z,100456.03
2019-02-19T01:36:03.079Z,100451.16
2019-02-19T01:38:31.806Z,100457.13
2019-02-19T01:41:00.251Z,100459.59
2019-02-19T01:43:28.678Z,100463.77
2019-02-19T01:45:57.305Z,100456.97
2019-02-19T01:48:26.043Z,100455.78
2019-02-19T01:50:54.464Z,100457.98
2019-02-19T01:53:23.259Z,100453.16
2019-02-19T01:55:51.685Z,100453.61
2019-02-19T01:58:20.098Z,100447.91
2019-02-19T02:00:48.858Z,100439.70
2019-02-19T02:03:17.380Z,100444.13
2019-02-19T02:05:45.963Z,100443.85
2019-02-19T02:08:14.415Z,100449.34
2019-02-19T02:10:42.839Z,100443.13
2019-02-19T02:13:11.570Z,100434.66
2019-02-19T02:15:42.751Z,100434.09
2019-02-19T02:18:10.334Z,100438.03
2019-02-19T02:20:40.334Z,100440.19
2019-02-19T02:23:08.790Z,100425.77
2019-02-19T02:25:37.255Z,100431.41
2019-02-19T02:28:05.699Z,100428.05
2019-02-19T02:30:34.446Z,100434.87
2019-02-19T02:33:02.858Z,100432.44
2019-02-19T02:35:31.300Z,100429.42
2019-02-19T02:37:59.919Z,100431.17
2019-02-19T02:40:28.348Z,100432.80
2019-02-19T02:42:56.768Z,100438.58
2019-02-19T02:45:25.518Z,100434.25
2019-02-19T02:47:54.026Z,100431.34
2019-02-19T02:50:22.457Z,100433.44
2019-02-19T02:52:50.894Z,100439.80
2019-02-19T02:55:19.315Z,100444.33
2019-02-19T02:57:47.743Z,100440.78
2019-02-19T03:00:16.204Z,100444.58
2019-02-19T03:02:44.632Z,100438.48
2019-02-19T03:05:13.055Z,100439.88
2019-02-19T03:07:43.148Z,100433.81
2019-02-19T03:10:11.724Z,100441.58
2019-02-19T03:12:40.148Z,100445.27
2019-02-19T03:15:09.525Z,100447.04
2019-02-19T03:17:37.959Z,100432.80
2019-02-19T03:20:07.630Z,100434.61
2019-02-19T03:22:36.149Z,100432.86
2019-02-19T03:25:05.114Z,100439.16
2019-02-19T03:27:33.561Z,100442.54
2019-02-19T03:30:02.008Z,100435.19
2019-02-19T03:32:30.533Z,100443.14
2019-02-19T03:34:58.955Z,100441.81
2019-02-19T03:37:27.403Z,100446.03
2019-02-19T03:39:55.918Z,100449.14
2019-02-19T03:42:24.340Z,100442.58
2019-02-19T03:44:52.808Z,100447.39
2019-02-19T03:47:21.240Z,100442.54
2019-02-19T03:49:49.753Z,100428.27
2019-02-19T03:52:18.338Z,100443.67
2019-02-19T03:54:47.096Z,100439.91
2019-02-19T03:57:15.582Z,100438.70
2019-02-19T03:59:44.517Z,100433.25
2019-02-19T04:02:13.358Z,100439.41
2019-02-19T04:04:41.860Z,100440.80
2019-02-19T04:07:10.467Z,100451.72
2019-02-19T04:09:38.894Z,100446.47
2019-02-19T04:12:07.414Z,100445.42
2019-02-19T04:14:36.320Z,100447.70
2019-02-19T04:17:04.820Z,100442.34
2019-02-19T04:19:33.239Z,100438.14
2019-02-19T04:22:01.865Z,100442.09
2019-02-19T04:24:30.706Z,100446.68
2019-02-19T04:26:59.127Z,100449.07
2019-02-19T04:29:27.871Z,100447.50
2019-02-19T04:31:56.408Z,100453.98
2019-02-19T04:34:25.139Z,100455.97
2019-02-19T04:36:53.927Z,100457.83
2019-02-19T04:39:22.372Z,100445.41
2019-02-19T04:41:50.801Z,100449.73
2019-02-19T04:44:19.348Z,100450.78
2019-02-19T04:46:47.867Z,100453.46
2019-02-19T04:49:16.294Z,100448.88
2019-02-19T04:51:44.754Z,100448.11
2019-02-19T04:54:13.174Z,100445.43
2019-02-19T04:56:41.595Z,100445.61
2019-02-19T04:59:10.062Z,100452.69
2019-02-19T05:01:38.507Z,100447.96
2019-02-19T05:04:06.927Z,100452.55
2019-02-19T05:06:35.385Z,100460.09
2019-02-19T05:09:04.748Z,100457.63
2019-02-19T05:11:33.168Z,100467.14
2019-02-19T05:14:01.630Z,100470.19
2019-02-19T05:16:30.052Z,100470.19
2019-02-19T05:18:58.474Z,100468.86
2019-02-19T05:21:26.942Z,100466.72
2019-02-19T05:23:55.358Z,100471.81
2019-02-19T05:26:23.784Z,100465.80
2019-02-19T05:28:52.414Z,100468.78
2019-02-19T05:31:20.855Z,100471.46
2019-02-19T05:33:49.254Z,100474.97
2019-02-19T05:36:18.398Z,100470.52
2019-02-19T05:38:47.186Z,100464.48
2019-02-19T05:41:15.616Z,100470.05
2019-02-19T05:43:44.150Z,100465.25
2019-02-19T05:46:12.948Z,100462.28
2019-02-19T05:48:41.359Z,100463.34
2019-02-19T05:51:09.814Z,100467.06
2019-02-19T05:53:38.244Z,100466.49
2019-02-19T05:56:06.667Z,100472.33
2019-02-19T05:58:35.118Z,100474.89
2019-02-19T06:01:03.830Z,100473.53
2019-02-19T06:03:32.246Z,100470.50
2019-02-19T06:06:00.785Z,100477.17
2019-02-19T06:08:29.318Z,100472.80
2019-02-19T06:10:57.745Z,100479.02
2019-02-19T06:13:26.191Z,100484.66
2019-02-19T06:15:54.916Z,100488.74
2019-02-19T06:18:23.340Z,100482.94
2019-02-19T06:20:51.800Z,100488.97
2019-02-19T06:23:20.274Z,100491.98
2019-02-19T06:25:48.644Z,100492.40
2019-02-19T06:28:17.092Z,100494.09
2019-02-19T06:30:45.511Z,100485.88
2019-02-19T06:33:13.961Z,100494.19
2019-02-19T06:35:42.411Z,100498.12
2019-02-19T06:38:10.830Z,100500.30
2019-02-19T06:40:39.343Z,100495.90
2019-02-19T06:43:07.798Z,100503.77
2019-02-19T06:45:36.218Z,100510.34
2019-02-19T06:48:05.558Z,100516.90
2019-02-19T06:50:34.002Z,100516.14
2019-02-19T06:53:02.426Z,100528.39
2019-02-19T06:55:30.939Z,100524.55
2019-02-19T06:57:59.388Z,100536.39
2019-02-19T07:00:27.906Z,100541.67
2019-02-19T07:02:57.976Z,100543.91
2019-02-19T07:05:26.435Z,100547.57
2019-02-19T07:07:54.887Z,100556.86
2019-02-19T07:10:23.576Z,100561.31
2019-02-19T07:12:52.115Z,100559.29
2019-02-19T07:15:20.623Z,100573.15
2019-02-19T07:17:49.027Z,100575.05
2019-02-19T07:20:17.495Z,100577.42
2019-02-19T07:22:46.274Z,100580.18
2019-02-19T07:25:14.840Z,100584.06
2019-02-19T07:27:43.376Z,100589.42
2019-02-19T07:30:12.535Z,100595.44
2019-02-19T07:32:41.055Z,100603.30
2019-02-19T07:35:10.639Z,100609.89
2019-02-19T07:37:39.138Z,100615.16
2019-02-19T07:40:08.917Z,100616.47
2019-02-19T07:42:37.365Z,100624.84
2019-02-19T07:45:10.085Z,100620.42
2019-02-19T07:47:38.581Z,100625.72
2019-02-19T07:50:11.875Z,100629.29
2019-02-19T07:52:40.309Z,100628.42
2019-02-19T07:55:10.363Z,100632.41
2019-02-19T07:57:38.811Z,100635.10
2019-02-19T08:00:10.922Z,100641.72
2019-02-19T08:02:39.430Z,100647.94
2019-02-19T08:05:08.414Z,100647.08
2019-02-19T08:07:37.258Z,100650.56
2019-02-19T08:10:08.735Z,100651.41
2019-02-19T08:12:37.348Z,100651.81
2019-02-19T08:15:08.708Z,100652.73
2019-02-19T08:17:37.441Z,100652.28
2019-02-19T08:20:15.367Z,100662.41
2019-02-19T08:22:38.711Z,100670.34
2019-02-19T08:25:07.376Z,100663.72
2019-02-19T08:27:35.828Z,100666.80
2019-02-19T08:30:06.154Z,100676.48
2019-02-19T08:32:34.575Z,100676.00
2019-02-19T08:35:03.362Z,100673.84
2019-02-19T08:37:31.775Z,100676.45
2019-02-19T08:40:00.306Z,100682.59
2019-02-19T08:42:28.832Z,100682.59
2019-02-19T08:44:57.272Z,100683.94
2019-02-19T08:47:25.792Z,100686.56
2019-02-19T08:49:54.367Z,100689.22
2019-02-19T08:52:22.814Z,100684.86
2019-02-19T08:54:51.242Z,100689.23
2019-02-19T08:57:19.695Z,100686.61
2019-02-19T08:59:48.216Z,100695.83
2019-02-19T09:02:16.645Z,100695.86
2019-02-19T09:04:45.101Z,100694.09
2019-02-19T09:07:13.527Z,100691.88
2019-02-19T09:09:41.962Z,100691.90
2019-02-19T09:12:11.571Z,100690.58
2019-02-19T09:14:40.124Z,100693.66
2019-02-19T09:17:08.558Z,100701.12
2019-02-19T09:19:37.021Z,100699.35
2019-02-19T09:22:05.454Z,100701.53
2019-02-19T09:24:33.885Z,100708.56
2019-02-19T09:27:02.413Z,100703.74
2019-02-19T09:29:30.850Z,100693.21
2019-02-19T09:31:59.285Z,100702.00
2019-02-19T09:34:27.740Z,100699.36
2019-02-19T09:36:56.174Z,100707.70
2019-02-19T09:39:24.719Z,100717.80
2019-02-19T09:41:53.194Z,100716.05
2019-02-19T09:44:21.629Z,100716.45
2019-02-19T09:46:50.057Z,100723.49
2019-02-19T09:49:18.522Z,100724.38
2019-02-19T09:51:46.958Z,100723.93
2019-02-19T09:54:15.392Z,100722.17
2019-02-19T09:56:43.859Z,100729.20
2019-02-19T09:59:12.289Z,100732.27
2019-02-19T10:01:40.811Z,100734.45
2019-02-19T10:04:09.274Z,100734.91
2019-02-19T10:06:37.798Z,100736.17
2019-02-19T10:09:08.079Z,100737.95
2019-02-19T10:11:36.542Z,100737.91
2019-02-19T10:14:05.133Z,100739.16
2019-02-19T10:16:41.419Z,100749.26
2019-02-19T10:19:03.771Z,100749.23
2019-02-19T10:21:32.206Z,100746.08
2019-02-19T10:24:00.643Z,100749.16
2019-02-19T10:26:29.207Z,100753.95
2019-02-19T10:28:57.729Z,100751.27
2019-02-19T10:31:26.161Z,100742.05
2019-02-19T10:33:54.626Z,100748.17
2019-02-19T10:36:23.244Z,100749.41
2019-02-19T10:38:52.025Z,100746.72
2019-02-19T10:41:20.834Z,100744.44
2019-02-19T10:43:49.275Z,100750.06
2019-02-19T10:46:17.710Z,100750.43
2019-02-19T10:48:46.162Z,100760.84
2019-02-19T10:51:14.689Z,100764.71
2019-02-19T10:53:43.128Z,100766.37
2019-02-19T10:56:11.903Z,100763.61
2019-02-19T10:58:40.597Z,100767.55
2019-02-19T11:01:09.096Z,100767.34
2019-02-19T11:03:37.661Z,100759.59
2019-02-19T11:06:06.081Z,100763.61
2019-02-19T11:08:34.829Z,100761.44
2019-02-19T11:11:03.557Z,100767.39
2019-02-19T11:13:31.972Z,100762.66
2019-02-19T11:16:00.393Z,100761.33
2019-02-19T11:18:29.070Z,100754.73
2019-02-19T11:20:57.565Z,100759.04
2019-02-19T11:23:25.993Z,100756.01
2019-02-19T11:25:54.449Z,100751.30
2019-02-19T11:28:22.871Z,100744.47
2019-02-19T11:30:51.308Z,100745.39
2019-02-19T11:33:19.750Z,100744.47
2019-02-19T11:35:48.174Z,100735.25
2019-02-19T11:38:16.599Z,100733.22
2019-02-19T11:40:45.049Z,100730.86
2019-02-19T11:43:13.562Z,100730.80
2019-02-19T11:45:41.984Z,100725.22
2019-02-19T11:48:10.443Z,100718.84
2019-02-19T11:50:39.207Z,100723.41
2019-02-19T11:53:07.630Z,100722.43
2019-02-19T11:55:36.092Z,100715.20
2019-02-19T11:58:04.540Z,100715.02
2019-02-19T12:00:34.671Z,100713.39
2019-02-19T12:03:03.216Z,100709.41
2019-02-19T12:05:31.631Z,100709.67
2019-02-19T12:08:00.522Z,100711.06
2019-02-19T12:10:29.072Z,100709.27
2019-02-19T12:12:57.514Z,100708.73
2019-02-19T12:15:34.680Z,100709.92
2019-02-19T12:17:56.186Z,100700.19
2019-02-19T12:20:24.606Z,100696.47
2019-02-19T12:22:53.041Z,100694.02
2019-02-19T12:25:21.491Z,100683.39
2019-02-19T12:27:50.221Z,100682.41
2019-02-19T12:30:19.894Z,100690.95
2019-02-19T12:32:48.344Z,100686.05
2019-02-19T12:35:17.095Z,100688.02
2019-02-19T12:37:45.623Z,100687.08
2019-02-19T12:40:14.947Z,100687.03
2019-02-19T12:42:43.446Z,100680.70
2019-02-19T12:45:13.411Z,100681.44
2019-02-19T12:47:41.951Z,100683.15
2019-02-19T12:50:12.816Z,100678.20
2019-02-19T12:52:41.584Z,100680.49
2019-02-19T12:55:10.885Z,100677.96
2019-02-19T12:57:39.389Z,100675.61
2019-02-19T13:00:13.889Z,100670.56
2019-02-19T13:02:44.053Z,100667.71
2019-02-19T13:05:14.235Z,100660.61
2019-02-19T13:07:42.634Z,100659.23
2019-02-19T13:10:12.132Z,100666.08
2019-02-19T13:12:40.634Z,100660.46
2019-02-19T13:15:14.396Z,100662.53
2019-02-19T13:17:42.870Z,100656.09
2019-02-19T13:20:13.460Z,100650.95
2019-02-19T13:22:41.922Z,100651.02
2019-02-19T13:25:11.408Z,100650.67
2019-02-19T13:27:40.001Z,100653.59
2019-02-19T13:30:11.569Z,100651.61
2019-02-19T13:32:40.031Z,100652.23
2019-02-19T13:35:11.159Z,100653.02
2019-02-19T13:37:39.947Z,100646.17
2019-02-19T13:40:17.747Z,100655.96
2019-02-19T13:42:46.175Z,100651.07
2019-02-19T13:45:15.539Z,100650.81
2019-02-19T13:47:43.995Z,100655.34
2019-02-19T13:50:18.227Z,100658.83
2019-02-19T13:52:57.419Z,100662.28
2019-02-19T13:55:27.487Z,100652.88
2019-02-19T13:57:57.352Z,100658.80
2019-02-19T14:00:27.968Z,100659.12
2019-02-19T14:02:56.399Z,100658.22
2019-02-19T14:05:25.737Z,100659.20
2019-02-19T14:07:54.439Z,100661.02
2019-02-19T14:10:22.856Z,100666.47
2019-02-19T14:12:51.284Z,100663.95
2019-02-19T14:15:36.827Z,100659.96
2019-02-19T14:18:07.256Z,100658.50
2019-02-19T14:20:37.411Z,100653.30
2019-02-19T14:23:16.018Z,100654.45
2019-02-19T14:25:51.624Z,100657.99
2019-02-19T14:28:21.732Z,100667.31
2019-02-19T14:31:00.844Z,100670.59
2019-02-19T14:33:36.766Z,100674.86
2019-02-19T14:36:23.144Z,100670.55
2019-02-19T14:39:08.125Z,100667.11
2019-02-19T14:41:43.783Z,100660.97
2019-02-19T14:44:13.881Z,100660.87
2019-02-19T14:46:46.671Z,100661.24
2019-02-19T14:49:16.743Z,100671.09
2019-02-19T14:51:47.116Z,100666.05
2019-02-19T14:54:22.991Z,100657.08
2019-02-19T14:56:53.113Z,100655.88
2019-02-19T14:59:35.701Z,100653.08
2019-02-19T15:02:05.874Z,100657.44
2019-02-19T15:04:51.928Z,100657.58
2019-02-19T15:07:37.572Z,100658.17
2019-02-19T15:10:19.508Z,100655.92
2019-02-19T15:12:49.657Z,100652.56
2019-02-19T15:15:25.948Z,100656.86
2019-02-19T15:18:08.485Z,100655.31
2019-02-19T15:20:44.552Z,100661.73
2019-02-19T15:23:14.724Z,100655.64
2019-02-19T15:26:01.088Z,100653.76
2019-02-19T15:28:37.079Z,100654.17
2019-02-19T15:31:25.583Z,100658.41
2019-02-19T15:34:07.691Z,100663.97
2019-02-19T15:36:53.877Z,100663.47
2019-02-19T15:39:39.901Z,100655.23
2019-02-19T15:42:10.072Z,100666.19
2019-02-19T15:44:45.852Z,100665.23
2019-02-19T15:47:18.731Z,100663.83
2019-02-19T15:50:05.004Z,100658.30
2019-02-19T15:52:51.535Z,100663.25
2019-02-19T15:55:40.536Z,100674.45
2019-02-19T15:58:10.815Z,100674.59
2019-02-19T16:00:40.879Z,100675.17
2019-02-19T16:03:11.008Z,100677.96
2019-02-19T16:05:53.846Z,100674.05
2019-02-19T16:08:23.967Z,100672.50
2019-02-19T16:10:56.699Z,100669.31
2019-02-19T16:13:26.767Z,100669.88
2019-02-19T16:16:09.404Z,100677.09
2019-02-19T16:18:55.789Z,100676.72
2019-02-19T16:21:28.839Z,100680.28
2019-02-19T16:24:04.665Z,100682.23
2019-02-19T16:26:37.518Z,100683.45
2019-02-19T16:29:13.630Z,100678.44
2019-02-19T16:31:49.501Z,100680.08
2019-02-19T16:34:25.562Z,100676.30
2019-02-19T16:36:55.703Z,100685.17
2019-02-19T16:39:44.024Z,100680.52
2019-02-19T16:42:29.403Z,100677.73
2019-02-19T16:45:02.441Z,100683.72
2019-02-19T16:47:38.335Z,100690.28
2019-02-19T16:50:10.940Z,100686.75
2019-02-19T16:52:59.598Z,100687.05
2019-02-19T16:55:29.666Z,100693.17
2019-02-19T16:57:59.731Z,100695.01
2019-02-19T17:00:35.416Z,100692.95
2019-02-19T17:03:05.502Z,100690.95
2019-02-19T17:05:47.675Z,100696.84
2019-02-19T17:08:17.807Z,100706.14
2019-02-19T17:10:47.871Z,100703.62
2019-02-19T17:13:24.235Z,100711.58
2019-02-19T17:16:00.422Z,100705.55
2019-02-19T17:18:33.727Z,100709.33
2019-02-19T17:21:03.884Z,100711.65
2019-02-19T17:23:37.231Z,100715.20
2019-02-19T17:26:07.341Z,100717.77
2019-02-19T17:28:37.386Z,100720.07
2019-02-19T17:31:07.539Z,100723.28
2019-02-19T17:33:40.922Z,100726.83
2019-02-19T17:36:23.069Z,100729.02
2019-02-19T17:38:59.275Z,100731.45
2019-02-19T17:41:29.335Z,100729.91
2019-02-19T17:44:02.439Z,100736.68
2019-02-19T17:46:50.646Z,100738.18
2019-02-19T17:49:27.151Z,100738.50
2019-02-19T17:52:01.135Z,100742.66
2019-02-19T17:54:31.195Z,100748.05
2019-02-19T17:57:17.691Z,100748.11
2019-02-19T18:00:02.765Z,100746.00
2019-02-19T18:02:33.212Z,100748.72
2019-02-19T18:05:15.817Z,100747.02
2019-02-19T18:07:58.112Z,100759.40
2019-02-19T18:10:28.175Z,100758.14
2019-02-19T18:13:16.359Z,100762.13
2019-02-19T18:15:46.581Z,100757.74
2019-02-19T18:18:22.943Z,100765.23
2019-02-19T18:20:51.453Z,100770.49
2019-02-19T18:23:19.967Z,100776.66
2019-02-19T18:25:48.887Z,100774.92
2019-02-19T18:28:17.311Z,100784.12
2019-02-19T18:30:45.730Z,100779.73
2019-02-19T18:33:14.180Z,100781.48
2019-02-19T18:35:42.608Z,100771.39
2019-02-19T18:38:11.815Z,100776.22
2019-02-19T18:40:40.359Z,100778.88
2019-02-19T18:43:09.196Z,100780.59
2019-02-19T18:45:37.610Z,100783.17
2019-02-19T18:48:06.063Z,100780.98
2019-02-19T18:50:34.483Z,100778.31
2019-02-19T18:53:02.904Z,100785.77
2019-02-19T18:55:31.856Z,100788.36
2019-02-19T18:58:00.370Z,100786.05
2019-02-19T19:00:28.886Z,100792.69
2019-02-19T19:02:57.614Z,100795.42
2019-02-19T19:05:26.356Z,100800.20
2019-02-19T19:07:54.768Z,100793.61
2019-02-19T19:10:23.318Z,100791.52
2019-02-19T19:12:51.992Z,100791.08
2019-02-19T19:15:20.488Z,100799.92
2019-02-19T19:17:49.264Z,100799.05
2019-02-19T19:20:17.817Z,100794.15
2019-02-19T19:22:47.136Z,100803.33
2019-02-19T19:25:15.716Z,100806.41
2019-02-19T19:27:44.521Z,100808.20
2019-02-19T19:30:14.889Z,100812.59
2019-02-19T19:32:43.644Z,100816.92
2019-02-19T19:35:12.333Z,100823.95
2019-02-19T19:37:41.153Z,100823.52
2019-02-19T19:40:11.903Z,100825.16
2019-02-19T19:42:40.425Z,100822.09
2019-02-19T19:45:11.468Z,100830.84
2019-02-19T19:47:39.966Z,100824.64
2019-02-19T19:50:10.837Z,100830.28
2019-02-19T19:52:39.727Z,100828.28
2019-02-19T19:55:10.388Z,100824.77
2019-02-19T19:57:38.921Z,100827.98
2019-02-19T20:00:12.823Z,100828.50
2019-02-19T20:02:41.490Z,100829.80
2019-02-19T20:05:10.805Z,100833.34
2019-02-19T20:07:39.326Z,100833.36
2019-02-19T20:10:10.915Z,100835.55
2019-02-19T20:12:39.453Z,100830.27
2019-02-19T20:15:10.881Z,100838.97
2019-02-19T20:17:39.461Z,100832.78
2019-02-19T20:20:12.767Z,100826.09
2019-02-19T20:22:41.238Z,100834.30
2019-02-19T20:25:11.971Z,100834.21
2019-02-19T20:27:40.714Z,100835.44
2019-02-19T20:30:16.686Z,100840.19
2019-02-19T20:32:45.270Z,100843.59
2019-02-19T20:35:13.816Z,100848.32
2019-02-19T20:37:42.271Z,100841.38
2019-02-19T20:40:12.152Z,100844.58
2019-02-19T20:42:40.700Z,100856.41
2019-02-19T20:45:13.175Z,100860.91
2019-02-19T20:47:41.828Z,100857.45
2019-02-19T20:50:11.659Z,100857.96
2019-02-19T20:52:40.389Z,100856.66
2019-02-19T20:55:10.830Z,100863.23
2019-02-19T20:57:39.560Z,100857.36
2019-02-19T21:00:18.169Z,100864.25
2019-02-19T21:02:47.139Z,100857.53
2019-02-19T21:05:16.781Z,100860.23
2019-02-19T21:07:45.293Z,100862.96
2019-02-19T21:10:18.807Z,100862.92
2019-02-19T21:12:47.336Z,100865.99
2019-02-19T21:15:15.843Z,100864.19
2019-02-19T21:17:44.553Z,100862.76
2019-02-19T21:20:13.315Z,100865.53
2019-02-19T21:22:41.928Z,100872.64
2019-02-19T21:25:11.568Z,100861.56
2019-02-19T21:27:39.990Z,100869.20
2019-02-19T21:30:12.091Z,100872.50
2019-02-19T21:32:40.514Z,100872.48
2019-02-19T21:35:09.927Z,100872.08
2019-02-19T21:37:38.656Z,100874.21
2019-02-19T21:40:12.486Z,100872.01
2019-02-19T21:42:41.257Z,100866.20
2019-02-19T21:45:12.286Z,100874.89
2019-02-19T21:47:40.733Z,100866.89
2019-02-19T21:50:15.571Z,100870.87
2019-02-19T21:52:44.184Z,100870.22
2019-02-19T21:55:13.451Z,100865.58
2019-02-19T21:57:41.884Z,100865.52
2019-02-19T22:00:19.198Z,100867.55
2019-02-19T22:02:47.720Z,100872.41
2019-02-19T22:05:16.442Z,100877.28
2019-02-19T22:07:45.259Z,100881.58
2019-02-19T22:10:14.751Z,100876.20
2019-02-19T22:12:43.507Z,100884.30
2019-02-19T22:15:13.495Z,100884.02
2019-02-19T22:17:42.151Z,100884.50
2019-02-19T22:20:32.178Z,100881.84
2019-02-19T22:23:00.984Z,100887.43
2019-02-19T22:25:29.418Z,100884.45
2019-02-19T22:27:58.149Z,100886.50
2019-02-19T22:30:26.565Z,100886.93
2019-02-19T22:32:55.054Z,100891.66
2019-02-19T22:35:23.570Z,100888.00
2019-02-19T22:37:51.992Z,100886.26
2019-02-19T22:40:20.478Z,100888.61
2019-02-19T22:42:49.055Z,100896.70
2019-02-19T22:45:17.496Z,100889.38
2019-02-19T22:47:53.158Z,100897.13
2019-02-19T22:50:16.168Z,100895.53
2019-02-19T22:52:45.114Z,100895.66
2019-02-19T22:55:18.320Z,100895.27
2019-02-19T22:57:46.768Z,100897.86
2019-02-19T23:00:19.880Z,100889.14
2019-02-19T23:02:48.663Z,100894.13
2019-02-19T23:05:17.120Z,100893.00
2019-02-19T23:07:45.538Z,100899.01
2019-02-19T23:10:14.031Z,100896.23
2019-02-19T23:12:42.555Z,100899.11
2019-02-19T23:15:11.004Z,100907.81
2019-02-19T23:17:39.500Z,100907.86
2019-02-19T23:20:08.137Z,100906.14
2019-02-19T23:22:36.731Z,100906.39
2019-02-19T23:25:06.313Z,100907.25
2019-02-19T23:27:34.767Z,100910.71
2019-02-19T23:30:03.188Z,100910.15
2019-02-19T23:32:31.612Z,100912.73
2019-02-19T23:35:13.771Z,100918.50
2019-02-19T23:37:42.262Z,100912.13
2019-02-19T23:40:10.762Z,100905.25
2019-02-19T23:42:39.231Z,100909.41
2019-02-19T23:45:09.226Z,100909.30
2019-02-19T23:47:37.666Z,100904.11
2019-02-19T23:50:07.951Z,100917.29
2019-02-19T23:52:36.375Z,100920.05
2019-02-19T23:55:07.072Z,100922.38
2019-02-19T23:57:35.596Z,100922.17
